Current Weather Conditions: station 62163

sailwx.info

Wind from 240 at 14 knots

Wave height 2.7 meters (8 feet), 7 second period

Air temperature 17.5° C
Dewpoint 13.6° C

Last reported at 2019-Sep-22 19:00 UTC.
Time now 2019-Sep-22 20:18 UTC

Location: N 47°30' W 008°24'.
View on Google Maps.

See reports from other nearby stations

  
Tides and Currents Weather Stations Pressure Air Temp Water Temp Dewpoint Dewpoint Depression Visibility Wind Speed Wind Dir Waves Ship Positions
date/time (UTC)wind fromknots sea level pressurealtimeterstation pressurevisibilityair tempwater tempwave heightnotes
2019-Sep-22 19:00 240 14 17.5 2.7
2019-Sep-22 18:00 250 14 17.6 2.6
2019-Sep-22 17:00 250 13 17.7 2.5
2019-Sep-22 16:00 260 9 17.3 2.4
2019-Sep-22 15:00 270 14 17.7 2.7
2019-Sep-22 14:00 270 15 17.6 2.7
2019-Sep-22 13:00 290 17 17.5 2.6
2019-Sep-22 12:00 290 19 16.8 2.4
2019-Sep-22 11:00 300 20 gusting 25 16.0 2.5
2019-Sep-22 10:00 290 20 gusting 27 16.0 2.1
2019-Sep-22 09:00 290 20 gusting 27 16.1 2.3
2019-Sep-22 08:00 290 18 gusting 28 16.5 2.2
2019-Sep-22 07:00 260 18 16.7 2.7
2019-Sep-22 06:00 240 18 16.9 2.9
2019-Sep-22 05:00 250 18 16.7 2.5
2019-Sep-22 04:00 250 18 16.4 2.5
2019-Sep-22 03:00 250 15 16.2 2.3
2019-Sep-22 02:00 260 13 15.2 2.3
2019-Sep-22 01:00 230 11 15.9 2.1
2019-Sep-21 23:00 250 11 16.0 2.2
2019-Sep-21 22:00 240 15 16.7 2.1
2019-Sep-21 21:00 190 8 17.9 2.5
2019-Sep-21 20:00 210 7 18.0 2.1
2019-Sep-21 19:00 210 11 18.1 2.4
2019-Sep-21 18:00 220 13 18.1 2.4
2019-Sep-21 17:00 200 13 18.1 2.5
2019-Sep-21 16:00 190 13 17.9 2.6
2019-Sep-21 15:00 200 13 17.2 2.8
2019-Sep-21 14:00 200 11 16.4 2.8
2019-Sep-21 12:00 160 19 gusting 27 18.2 2.5
2019-Sep-21 11:00 170 21 gusting 28 18.6 2.5
2019-Sep-21 10:00 170 21 gusting 27 18.6 2.4
2019-Sep-21 09:00 170 20 18.5 2.1
2019-Sep-21 08:00 170 19 18.4 1.8
2019-Sep-21 07:00 170 19 18.4 1.8
2019-Sep-21 06:00 170 19 18.3 1.6
2019-Sep-21 05:00 170 19 18.3 1.6
2019-Sep-21 04:00 170 15 18.3 1.7
2019-Sep-21 03:00 170 14 18.2 1.7
2019-Sep-21 02:00 180 13 18.1 1.6
2019-Sep-21 01:00 190 15 17.8 1.8
2019-Sep-20 23:00 180 15 18.0 1.8
2019-Sep-20 22:00 170 14 18.5 1.8
2019-Sep-20 21:00 160 13 18.4 1.8
2019-Sep-20 20:00 150 15 18.3 1.9